sensor_id;sensor_type;location;lat;lon;timestamp;P1;durP1;ratioP1;P2;durP2;ratioP2
17790;SDS011;9019;48.132;-1.210;2024-02-26T00:00:37;9.50;;;2.97;;
17790;SDS011;9019;48.132;-1.210;2024-02-26T00:03:05;11.47;;;4.13;;
17790;SDS011;9019;48.132;-1.210;2024-02-26T00:05:33;10.20;;;3.40;;
17790;SDS011;9019;48.132;-1.210;2024-02-26T00:08:00;11.13;;;3.30;;
17790;SDS011;9019;48.132;-1.210;2024-02-26T00:10:27;11.03;;;3.17;;
17790;SDS011;9019;48.132;-1.210;2024-02-26T00:12:54;11.50;;;2.70;;
17790;SDS011;9019;48.132;-1.210;2024-02-26T00:15:22;10.17;;;2.23;;
17790;SDS011;9019;48.132;-1.210;2024-02-26T00:17:50;12.30;;;2.83;;
17790;SDS011;9019;48.132;-1.210;2024-02-26T00:20:23;11.10;;;2.77;;
17790;SDS011;9019;48.132;-1.210;2024-02-26T00:22:50;8.77;;;3.07;;
17790;SDS011;9019;48.132;-1.210;2024-02-26T00:25:18;13.30;;;4.00;;
17790;SDS011;9019;48.132;-1.210;2024-02-26T00:27:45;11.53;;;4.37;;
17790;SDS011;9019;48.132;-1.210;2024-02-26T00:30:12;13.03;;;3.70;;
17790;SDS011;9019;48.132;-1.210;2024-02-26T00:32:40;9.57;;;3.10;;
17790;SDS011;9019;48.132;-1.210;2024-02-26T00:35:07;12.83;;;3.10;;
17790;SDS011;9019;48.132;-1.210;2024-02-26T00:37:37;7.30;;;2.40;;
17790;SDS011;9019;48.132;-1.210;2024-02-26T00:40:04;12.07;;;2.03;;
17790;SDS011;9019;48.132;-1.210;2024-02-26T00:42:33;9.70;;;2.20;;
17790;SDS011;9019;48.132;-1.210;2024-02-26T00:45:01;8.53;;;1.97;;
17790;SDS011;9019;48.132;-1.210;2024-02-26T00:47:28;8.57;;;2.20;;
17790;SDS011;9019;48.132;-1.210;2024-02-26T00:49:55;9.97;;;2.30;;
17790;SDS011;9019;48.132;-1.210;2024-02-26T00:52:23;7.17;;;2.10;;
17790;SDS011;9019;48.132;-1.210;2024-02-26T00:54:51;7.03;;;2.53;;
17790;SDS011;9019;48.132;-1.210;2024-02-26T00:57:18;6.87;;;2.93;;
17790;SDS011;9019;48.132;-1.210;2024-02-26T00:59:46;8.63;;;2.30;;
17790;SDS011;9019;48.132;-1.210;2024-02-26T01:02:13;8.77;;;2.40;;
17790;SDS011;9019;48.132;-1.210;2024-02-26T01:04:40;7.23;;;2.17;;
17790;SDS011;9019;48.132;-1.210;2024-02-26T01:07:10;8.30;;;2.43;;
17790;SDS011;9019;48.132;-1.210;2024-02-26T01:09:37;7.63;;;2.20;;
17790;SDS011;9019;48.132;-1.210;2024-02-26T01:12:06;7.93;;;2.23;;
17790;SDS011;9019;48.132;-1.210;2024-02-26T01:14:33;10.23;;;2.47;;
17790;SDS011;9019;48.132;-1.210;2024-02-26T01:17:00;7.13;;;2.40;;
17790;SDS011;9019;48.132;-1.210;2024-02-26T01:19:28;6.13;;;2.63;;
17790;SDS011;9019;48.132;-1.210;2024-02-26T01:21:55;10.07;;;2.80;;
17790;SDS011;9019;48.132;-1.210;2024-02-26T01:24:22;9.83;;;2.57;;
17790;SDS011;9019;48.132;-1.210;2024-02-26T01:26:49;8.33;;;2.80;;
17790;SDS011;9019;48.132;-1.210;2024-02-26T01:29:18;5.97;;;3.00;;
17790;SDS011;9019;48.132;-1.210;2024-02-26T01:31:45;9.40;;;3.20;;
17790;SDS011;9019;48.132;-1.210;2024-02-26T01:34:12;8.27;;;3.37;;
17790;SDS011;9019;48.132;-1.210;2024-02-26T01:36:40;7.87;;;2.87;;
17790;SDS011;9019;48.132;-1.210;2024-02-26T01:39:07;6.03;;;2.23;;
17790;SDS011;9019;48.132;-1.210;2024-02-26T01:41:36;5.40;;;2.53;;
17790;SDS011;9019;48.132;-1.210;2024-02-26T01:44:04;8.70;;;2.67;;
17790;SDS011;9019;48.132;-1.210;2024-02-26T01:46:34;5.80;;;2.60;;
17790;SDS011;9019;48.132;-1.210;2024-02-26T01:49:01;10.57;;;2.67;;
17790;SDS011;9019;48.132;-1.210;2024-02-26T01:51:30;10.00;;;2.67;;
17790;SDS011;9019;48.132;-1.210;2024-02-26T01:53:59;8.17;;;2.37;;
17790;SDS011;9019;48.132;-1.210;2024-02-26T01:56:26;5.10;;;2.00;;
17790;SDS011;9019;48.132;-1.210;2024-02-26T01:58:56;5.57;;;2.47;;
17790;SDS011;9019;48.132;-1.210;2024-02-26T02:01:24;5.50;;;2.47;;
17790;SDS011;9019;48.132;-1.210;2024-02-26T02:03:54;11.43;;;2.57;;
17790;SDS011;9019;48.132;-1.210;2024-02-26T02:06:21;8.57;;;2.50;;
17790;SDS011;9019;48.132;-1.210;2024-02-26T02:08:48;4.80;;;2.37;;
17790;SDS011;9019;48.132;-1.210;2024-02-26T02:11:16;8.43;;;2.40;;
17790;SDS011;9019;48.132;-1.210;2024-02-26T02:13:43;8.13;;;2.20;;
17790;SDS011;9019;48.132;-1.210;2024-02-26T02:16:11;8.23;;;2.57;;
17790;SDS011;9019;48.132;-1.210;2024-02-26T02:18:38;9.97;;;2.80;;
17790;SDS011;9019;48.132;-1.210;2024-02-26T02:21:07;8.37;;;3.33;;
17790;SDS011;9019;48.132;-1.210;2024-02-26T02:23:34;8.27;;;3.13;;
17790;SDS011;9019;48.132;-1.210;2024-02-26T02:26:02;10.77;;;3.50;;
17790;SDS011;9019;48.132;-1.210;2024-02-26T02:28:29;8.33;;;3.60;;
17790;SDS011;9019;48.132;-1.210;2024-02-26T02:31:02;7.70;;;3.70;;
17790;SDS011;9019;48.132;-1.210;2024-02-26T02:33:29;8.10;;;3.90;;
17790;SDS011;9019;48.132;-1.210;2024-02-26T02:35:57;7.47;;;3.33;;
17790;SDS011;9019;48.132;-1.210;2024-02-26T02:38:25;10.87;;;3.90;;
17790;SDS011;9019;48.132;-1.210;2024-02-26T02:40:55;7.80;;;4.10;;
17790;SDS011;9019;48.132;-1.210;2024-02-26T02:43:22;6.33;;;4.67;;
17790;SDS011;9019;48.132;-1.210;2024-02-26T02:45:49;8.43;;;4.70;;
17790;SDS011;9019;48.132;-1.210;2024-02-26T02:48:16;6.77;;;3.97;;
17790;SDS011;9019;48.132;-1.210;2024-02-26T02:50:44;7.67;;;4.07;;
17790;SDS011;9019;48.132;-1.210;2024-02-26T02:53:12;11.47;;;3.67;;
17790;SDS011;9019;48.132;-1.210;2024-02-26T02:55:42;5.53;;;4.03;;
17790;SDS011;9019;48.132;-1.210;2024-02-26T02:58:09;5.23;;;4.10;;
17790;SDS011;9019;48.132;-1.210;2024-02-26T03:00:37;7.97;;;4.70;;
17790;SDS011;9019;48.132;-1.210;2024-02-26T03:03:04;8.03;;;4.00;;
17790;SDS011;9019;48.132;-1.210;2024-02-26T03:05:31;8.37;;;4.03;;
17790;SDS011;9019;48.132;-1.210;2024-02-26T03:07:59;10.10;;;4.67;;
17790;SDS011;9019;48.132;-1.210;2024-02-26T03:10:26;10.53;;;5.17;;
17790;SDS011;9019;48.132;-1.210;2024-02-26T03:12:55;8.30;;;5.40;;
17790;SDS011;9019;48.132;-1.210;2024-02-26T03:15:22;8.07;;;5.30;;
17790;SDS011;9019;48.132;-1.210;2024-02-26T03:17:49;9.73;;;5.60;;
17790;SDS011;9019;48.132;-1.210;2024-02-26T03:20:16;8.80;;;4.90;;
17790;SDS011;9019;48.132;-1.210;2024-02-26T03:22:44;8.53;;;5.27;;
17790;SDS011;9019;48.132;-1.210;2024-02-26T03:25:14;7.80;;;5.67;;
17790;SDS011;9019;48.132;-1.210;2024-02-26T03:27:41;9.47;;;5.63;;
17790;SDS011;9019;48.132;-1.210;2024-02-26T03:30:10;8.50;;;5.20;;
17790;SDS011;9019;48.132;-1.210;2024-02-26T03:32:37;8.50;;;4.93;;
17790;SDS011;9019;48.132;-1.210;2024-02-26T03:35:05;8.77;;;4.17;;
17790;SDS011;9019;48.132;-1.210;2024-02-26T03:37:32;8.17;;;4.27;;
17790;SDS011;9019;48.132;-1.210;2024-02-26T03:39:59;8.30;;;4.17;;
17790;SDS011;9019;48.132;-1.210;2024-02-26T03:42:28;5.97;;;4.13;;
17790;SDS011;9019;48.132;-1.210;2024-02-26T03:44:55;6.77;;;4.13;;
17790;SDS011;9019;48.132;-1.210;2024-02-26T03:47:24;7.83;;;4.20;;
17790;SDS011;9019;48.132;-1.210;2024-02-26T03:49:52;13.63;;;4.60;;
17790;SDS011;9019;48.132;-1.210;2024-02-26T03:52:20;9.73;;;4.63;;
17790;SDS011;9019;48.132;-1.210;2024-02-26T03:54:47;8.07;;;4.83;;
17790;SDS011;9019;48.132;-1.210;2024-02-26T03:57:14;7.60;;;4.57;;
17790;SDS011;9019;48.132;-1.210;2024-02-26T03:59:44;13.00;;;4.93;;
17790;SDS011;9019;48.132;-1.210;2024-02-26T04:02:14;10.83;;;5.10;;
17790;SDS011;9019;48.132;-1.210;2024-02-26T04:04:42;7.17;;;4.90;;
17790;SDS011;9019;48.132;-1.210;2024-02-26T04:07:10;9.70;;;5.13;;
17790;SDS011;9019;48.132;-1.210;2024-02-26T04:09:38;9.70;;;4.93;;
17790;SDS011;9019;48.132;-1.210;2024-02-26T04:12:05;8.10;;;5.23;;
17790;SDS011;9019;48.132;-1.210;2024-02-26T04:14:33;7.63;;;5.00;;
17790;SDS011;9019;48.132;-1.210;2024-02-26T04:17:00;7.30;;;4.17;;
17790;SDS011;9019;48.132;-1.210;2024-02-26T04:19:27;10.43;;;4.97;;
17790;SDS011;9019;48.132;-1.210;2024-02-26T04:21:56;7.20;;;4.53;;
17790;SDS011;9019;48.132;-1.210;2024-02-26T04:24:23;5.33;;;4.10;;
17790;SDS011;9019;48.132;-1.210;2024-02-26T04:26:50;6.00;;;4.00;;
17790;SDS011;9019;48.132;-1.210;2024-02-26T04:29:17;7.43;;;3.53;;
17790;SDS011;9019;48.132;-1.210;2024-02-26T04:31:45;8.20;;;3.60;;
17790;SDS011;9019;48.132;-1.210;2024-02-26T04:34:13;7.57;;;3.27;;
17790;SDS011;9019;48.132;-1.210;2024-02-26T04:36:40;4.73;;;3.10;;
17790;SDS011;9019;48.132;-1.210;2024-02-26T04:39:09;7.73;;;3.40;;
17790;SDS011;9019;48.132;-1.210;2024-02-26T04:41:36;6.37;;;3.27;;
17790;SDS011;9019;48.132;-1.210;2024-02-26T04:44:03;6.13;;;3.30;;
17790;SDS011;9019;48.132;-1.210;2024-02-26T04:46:31;9.97;;;3.60;;
17790;SDS011;9019;48.132;-1.210;2024-02-26T04:48:58;10.80;;;3.20;;
17790;SDS011;9019;48.132;-1.210;2024-02-26T04:51:25;7.90;;;3.37;;
17790;SDS011;9019;48.132;-1.210;2024-02-26T04:53:55;7.73;;;3.47;;
17790;SDS011;9019;48.132;-1.210;2024-02-26T04:56:25;8.97;;;3.53;;
17790;SDS011;9019;48.132;-1.210;2024-02-26T04:58:52;10.13;;;3.70;;
17790;SDS011;9019;48.132;-1.210;2024-02-26T05:01:19;10.27;;;3.73;;
17790;SDS011;9019;48.132;-1.210;2024-02-26T05:03:49;10.33;;;3.70;;
17790;SDS011;9019;48.132;-1.210;2024-02-26T05:06:17;10.73;;;3.93;;
17790;SDS011;9019;48.132;-1.210;2024-02-26T05:08:44;9.07;;;3.80;;
17790;SDS011;9019;48.132;-1.210;2024-02-26T05:11:11;10.20;;;3.90;;
17790;SDS011;9019;48.132;-1.210;2024-02-26T05:13:40;8.77;;;3.83;;
17790;SDS011;9019;48.132;-1.210;2024-02-26T05:16:08;7.37;;;3.60;;
17790;SDS011;9019;48.132;-1.210;2024-02-26T05:18:35;9.90;;;4.07;;
17790;SDS011;9019;48.132;-1.210;2024-02-26T05:21:03;9.33;;;3.80;;
17790;SDS011;9019;48.132;-1.210;2024-02-26T05:23:30;15.90;;;4.73;;
17790;SDS011;9019;48.132;-1.210;2024-02-26T05:25:57;19.40;;;4.77;;
17790;SDS011;9019;48.132;-1.210;2024-02-26T05:28:27;23.17;;;5.73;;
17790;SDS011;9019;48.132;-1.210;2024-02-26T05:30:56;21.20;;;5.97;;
17790;SDS011;9019;48.132;-1.210;2024-02-26T05:33:29;23.27;;;5.93;;
17790;SDS011;9019;48.132;-1.210;2024-02-26T05:35:57;30.43;;;7.10;;
17790;SDS011;9019;48.132;-1.210;2024-02-26T05:38:29;22.10;;;6.47;;
17790;SDS011;9019;48.132;-1.210;2024-02-26T05:40:57;24.30;;;6.67;;
17790;SDS011;9019;48.132;-1.210;2024-02-26T05:43:24;31.70;;;7.40;;
17790;SDS011;9019;48.132;-1.210;2024-02-26T05:45:51;33.10;;;6.60;;
17790;SDS011;9019;48.132;-1.210;2024-02-26T05:48:23;42.50;;;8.00;;
17790;SDS011;9019;48.132;-1.210;2024-02-26T05:50:50;31.93;;;7.63;;
17790;SDS011;9019;48.132;-1.210;2024-02-26T05:53:17;26.43;;;7.30;;
17790;SDS011;9019;48.132;-1.210;2024-02-26T05:55:47;44.97;;;8.53;;
17790;SDS011;9019;48.132;-1.210;2024-02-26T05:58:14;26.00;;;7.83;;
17790;SDS011;9019;48.132;-1.210;2024-02-26T06:00:41;35.13;;;8.67;;
17790;SDS011;9019;48.132;-1.210;2024-02-26T06:03:09;30.67;;;8.50;;
17790;SDS011;9019;48.132;-1.210;2024-02-26T06:05:40;27.53;;;8.60;;
17790;SDS011;9019;48.132;-1.210;2024-02-26T06:08:08;26.03;;;8.80;;
17790;SDS011;9019;48.132;-1.210;2024-02-26T06:10:38;25.67;;;8.87;;
17790;SDS011;9019;48.132;-1.210;2024-02-26T06:13:06;24.80;;;8.67;;
17790;SDS011;9019;48.132;-1.210;2024-02-26T06:15:33;23.57;;;8.60;;
17790;SDS011;9019;48.132;-1.210;2024-02-26T06:18:00;25.27;;;8.30;;
17790;SDS011;9019;48.132;-1.210;2024-02-26T06:20:30;23.83;;;8.33;;
17790;SDS011;9019;48.132;-1.210;2024-02-26T06:22:59;17.70;;;7.63;;
17790;SDS011;9019;48.132;-1.210;2024-02-26T06:25:26;18.40;;;8.90;;
17790;SDS011;9019;48.132;-1.210;2024-02-26T06:27:53;13.57;;;6.50;;
17790;SDS011;9019;48.132;-1.210;2024-02-26T06:30:31;9.97;;;4.93;;
17790;SDS011;9019;48.132;-1.210;2024-02-26T06:32:58;6.53;;;4.37;;
17790;SDS011;9019;48.132;-1.210;2024-02-26T06:35:28;6.20;;;4.63;;
17790;SDS011;9019;48.132;-1.210;2024-02-26T06:37:55;5.87;;;4.83;;
17790;SDS011;9019;48.132;-1.210;2024-02-26T06:40:24;6.13;;;4.23;;
17790;SDS011;9019;48.132;-1.210;2024-02-26T06:42:52;7.30;;;4.80;;
17790;SDS011;9019;48.132;-1.210;2024-02-26T06:45:21;8.03;;;5.67;;
17790;SDS011;9019;48.132;-1.210;2024-02-26T06:47:49;8.07;;;5.67;;
17790;SDS011;9019;48.132;-1.210;2024-02-26T06:50:16;8.57;;;6.40;;
17790;SDS011;9019;48.132;-1.210;2024-02-26T06:52:44;9.70;;;6.97;;
17790;SDS011;9019;48.132;-1.210;2024-02-26T06:55:12;8.50;;;6.67;;
17790;SDS011;9019;48.132;-1.210;2024-02-26T06:57:41;8.37;;;6.60;;
17790;SDS011;9019;48.132;-1.210;2024-02-26T07:00:08;10.37;;;7.50;;
17790;SDS011;9019;48.132;-1.210;2024-02-26T07:02:39;10.13;;;7.03;;
17790;SDS011;9019;48.132;-1.210;2024-02-26T07:05:07;10.43;;;7.80;;
17790;SDS011;9019;48.132;-1.210;2024-02-26T07:07:34;9.53;;;7.67;;
17790;SDS011;9019;48.132;-1.210;2024-02-26T07:10:01;10.37;;;6.67;;
17790;SDS011;9019;48.132;-1.210;2024-02-26T07:12:30;7.63;;;6.20;;
17790;SDS011;9019;48.132;-1.210;2024-02-26T07:14:59;8.17;;;6.20;;
17790;SDS011;9019;48.132;-1.210;2024-02-26T07:17:27;6.83;;;5.50;;
17790;SDS011;9019;48.132;-1.210;2024-02-26T07:19:55;5.67;;;5.10;;
17790;SDS011;9019;48.132;-1.210;2024-02-26T07:22:22;5.47;;;4.87;;
17790;SDS011;9019;48.132;-1.210;2024-02-26T07:24:50;3.57;;;3.27;;
17790;SDS011;9019;48.132;-1.210;2024-02-26T07:27:17;9.63;;;8.63;;
17790;SDS011;9019;48.132;-1.210;2024-02-26T07:29:46;5.23;;;4.70;;
17790;SDS011;9019;48.132;-1.210;2024-02-26T07:32:15;11.63;;;9.30;;
17790;SDS011;9019;48.132;-1.210;2024-02-26T07:34:42;5.90;;;4.13;;
17790;SDS011;9019;48.132;-1.210;2024-02-26T07:37:09;6.43;;;5.20;;
17790;SDS011;9019;48.132;-1.210;2024-02-26T07:39:37;6.90;;;5.57;;
17790;SDS011;9019;48.132;-1.210;2024-02-26T07:42:04;4.40;;;4.00;;
17790;SDS011;9019;48.132;-1.210;2024-02-26T07:44:32;7.83;;;6.87;;
17790;SDS011;9019;48.132;-1.210;2024-02-26T07:46:59;4.13;;;3.73;;
17790;SDS011;9019;48.132;-1.210;2024-02-26T07:49:29;29.00;;;23.77;;
17790;SDS011;9019;48.132;-1.210;2024-02-26T07:51:56;13.93;;;10.97;;
17790;SDS011;9019;48.132;-1.210;2024-02-26T07:54:23;9.43;;;6.80;;
17790;SDS011;9019;48.132;-1.210;2024-02-26T07:56:50;15.43;;;10.60;;
17790;SDS011;9019;48.132;-1.210;2024-02-26T07:59:18;3.87;;;3.53;;
17790;SDS011;9019;48.132;-1.210;2024-02-26T08:01:48;6.50;;;5.90;;
17790;SDS011;9019;48.132;-1.210;2024-02-26T08:04:16;7.47;;;6.67;;
17790;SDS011;9019;48.132;-1.210;2024-02-26T08:06:44;13.57;;;10.93;;
17790;SDS011;9019;48.132;-1.210;2024-02-26T08:09:11;7.67;;;6.70;;
17790;SDS011;9019;48.132;-1.210;2024-02-26T08:11:39;18.00;;;16.30;;
17790;SDS011;9019;48.132;-1.210;2024-02-26T08:14:06;9.47;;;8.33;;
17790;SDS011;9019;48.132;-1.210;2024-02-26T08:16:33;16.20;;;14.70;;
17790;SDS011;9019;48.132;-1.210;2024-02-26T08:19:00;6.30;;;5.57;;
17790;SDS011;9019;48.132;-1.210;2024-02-26T08:21:28;13.17;;;12.07;;
17790;SDS011;9019;48.132;-1.210;2024-02-26T08:23:56;5.70;;;5.20;;
17790;SDS011;9019;48.132;-1.210;2024-02-26T08:26:23;4.43;;;4.00;;
17790;SDS011;9019;48.132;-1.210;2024-02-26T08:28:51;6.57;;;5.97;;
17790;SDS011;9019;48.132;-1.210;2024-02-26T08:31:19;2.90;;;1.80;;
17790;SDS011;9019;48.132;-1.210;2024-02-26T08:33:48;3.13;;;2.17;;
17790;SDS011;9019;48.132;-1.210;2024-02-26T08:36:15;3.90;;;3.40;;
17790;SDS011;9019;48.132;-1.210;2024-02-26T08:38:48;4.22;;;3.82;;
17790;SDS011;9019;48.132;-1.210;2024-02-26T08:41:17;2.23;;;1.40;;
17790;SDS011;9019;48.132;-1.210;2024-02-26T08:43:44;2.73;;;2.37;;
17790;SDS011;9019;48.132;-1.210;2024-02-26T08:46:12;2.10;;;1.63;;
17790;SDS011;9019;48.132;-1.210;2024-02-26T08:48:39;4.37;;;3.13;;
17790;SDS011;9019;48.132;-1.210;2024-02-26T08:51:07;2.63;;;1.33;;
17790;SDS011;9019;48.132;-1.210;2024-02-26T08:53:34;2.60;;;1.43;;
17790;SDS011;9019;48.132;-1.210;2024-02-26T08:56:02;1.47;;;0.70;;
17790;SDS011;9019;48.132;-1.210;2024-02-26T09:07:41;2.60;;;2.10;;
17790;SDS011;9019;48.132;-1.210;2024-02-26T09:10:08;3.30;;;2.37;;
17790;SDS011;9019;48.132;-1.210;2024-02-26T09:12:36;1.67;;;0.90;;
17790;SDS011;9019;48.132;-1.210;2024-02-26T09:15:06;2.60;;;1.87;;
17790;SDS011;9019;48.132;-1.210;2024-02-26T09:17:34;2.33;;;1.60;;
17790;SDS011;9019;48.132;-1.210;2024-02-26T09:20:01;2.70;;;1.40;;
17790;SDS011;9019;48.132;-1.210;2024-02-26T09:22:29;2.33;;;1.20;;
17790;SDS011;9019;48.132;-1.210;2024-02-26T09:24:57;2.60;;;1.83;;
17790;SDS011;9019;48.132;-1.210;2024-02-26T09:27:24;2.90;;;2.20;;
17790;SDS011;9019;48.132;-1.210;2024-02-26T09:29:53;3.77;;;1.10;;
17790;SDS011;9019;48.132;-1.210;2024-02-26T09:32:20;3.93;;;3.17;;
17790;SDS011;9019;48.132;-1.210;2024-02-26T09:34:47;1.77;;;0.80;;
17790;SDS011;9019;48.132;-1.210;2024-02-26T09:37:14;1.90;;;0.70;;
17790;SDS011;9019;48.132;-1.210;2024-02-26T09:39:41;1.90;;;0.60;;
17790;SDS011;9019;48.132;-1.210;2024-02-26T09:42:11;2.83;;;1.00;;
17790;SDS011;9019;48.132;-1.210;2024-02-26T09:44:40;1.30;;;0.50;;
17790;SDS011;9019;48.132;-1.210;2024-02-26T09:47:08;0.60;;;0.40;;
17790;SDS011;9019;48.132;-1.210;2024-02-26T09:49:36;1.53;;;0.60;;
17790;SDS011;9019;48.132;-1.210;2024-02-26T09:52:04;0.83;;;0.43;;
17790;SDS011;9019;48.132;-1.210;2024-02-26T09:54:31;0.80;;;0.60;;
17790;SDS011;9019;48.132;-1.210;2024-02-26T09:56:59;2.50;;;0.80;;
17790;SDS011;9019;48.132;-1.210;2024-02-26T09:59:29;2.30;;;0.70;;
17790;SDS011;9019;48.132;-1.210;2024-02-26T10:01:56;1.03;;;0.70;;
17790;SDS011;9019;48.132;-1.210;2024-02-26T10:04:25;2.13;;;0.77;;
17790;SDS011;9019;48.132;-1.210;2024-02-26T10:06:53;3.63;;;1.80;;
17790;SDS011;9019;48.132;-1.210;2024-02-26T10:09:21;4.40;;;1.67;;
17790;SDS011;9019;48.132;-1.210;2024-02-26T10:11:48;2.40;;;1.33;;
17790;SDS011;9019;48.132;-1.210;2024-02-26T10:14:16;3.80;;;1.20;;
17790;SDS011;9019;48.132;-1.210;2024-02-26T10:16:47;2.20;;;0.90;;
17790;SDS011;9019;48.132;-1.210;2024-02-26T10:19:24;1.33;;;0.70;;
17790;SDS011;9019;48.132;-1.210;2024-02-26T10:21:53;1.77;;;0.57;;
17790;SDS011;9019;48.132;-1.210;2024-02-26T10:24:21;2.30;;;0.70;;
17790;SDS011;9019;48.132;-1.210;2024-02-26T10:26:48;1.73;;;0.80;;
17790;SDS011;9019;48.132;-1.210;2024-02-26T10:29:16;2.10;;;0.80;;
17790;SDS011;9019;48.132;-1.210;2024-02-26T10:31:44;1.60;;;0.60;;
17790;SDS011;9019;48.132;-1.210;2024-02-26T10:34:13;2.20;;;0.40;;
17790;SDS011;9019;48.132;-1.210;2024-02-26T10:36:41;0.80;;;0.40;;
17790;SDS011;9019;48.132;-1.210;2024-02-26T10:39:09;0.60;;;0.47;;
17790;SDS011;9019;48.132;-1.210;2024-02-26T10:41:36;2.10;;;0.40;;
17790;SDS011;9019;48.132;-1.210;2024-02-26T10:44:04;1.07;;;0.50;;
17790;SDS011;9019;48.132;-1.210;2024-02-26T10:46:31;0.70;;;0.40;;
17790;SDS011;9019;48.132;-1.210;2024-02-26T10:48:58;5.03;;;0.60;;
17790;SDS011;9019;48.132;-1.210;2024-02-26T10:51:27;0.90;;;0.30;;
17790;SDS011;9019;48.132;-1.210;2024-02-26T10:53:56;1.43;;;0.60;;
17790;SDS011;9019;48.132;-1.210;2024-02-26T10:56:24;1.93;;;0.83;;
17790;SDS011;9019;48.132;-1.210;2024-02-26T10:58:52;2.20;;;0.60;;
17790;SDS011;9019;48.132;-1.210;2024-02-26T11:01:20;1.93;;;0.50;;
17790;SDS011;9019;48.132;-1.210;2024-02-26T11:03:50;3.13;;;0.67;;
17790;SDS011;9019;48.132;-1.210;2024-02-26T11:06:17;1.10;;;0.83;;
17790;SDS011;9019;48.132;-1.210;2024-02-26T11:08:48;4.67;;;3.40;;
17790;SDS011;9019;48.132;-1.210;2024-02-26T11:11:16;4.43;;;2.03;;
17790;SDS011;9019;48.132;-1.210;2024-02-26T11:13:44;3.03;;;0.63;;
17790;SDS011;9019;48.132;-1.210;2024-02-26T11:16:14;2.70;;;0.50;;
17790;SDS011;9019;48.132;-1.210;2024-02-26T11:18:43;2.23;;;0.97;;
17790;SDS011;9019;48.132;-1.210;2024-02-26T11:21:11;1.33;;;0.57;;
17790;SDS011;9019;48.132;-1.210;2024-02-26T11:23:39;1.80;;;0.50;;
17790;SDS011;9019;48.132;-1.210;2024-02-26T11:26:08;1.63;;;0.50;;
17790;SDS011;9019;48.132;-1.210;2024-02-26T11:28:36;2.37;;;0.80;;
17790;SDS011;9019;48.132;-1.210;2024-02-26T11:31:05;1.80;;;0.57;;
17790;SDS011;9019;48.132;-1.210;2024-02-26T11:33:32;2.03;;;0.70;;
17790;SDS011;9019;48.132;-1.210;2024-02-26T11:36:01;3.47;;;0.87;;
17790;SDS011;9019;48.132;-1.210;2024-02-26T11:38:28;2.33;;;1.10;;
17790;SDS011;9019;48.132;-1.210;2024-02-26T11:40:56;2.40;;;0.90;;
17790;SDS011;9019;48.132;-1.210;2024-02-26T11:46:14;2.00;;;0.60;;
17790;SDS011;9019;48.132;-1.210;2024-02-26T11:48:51;1.90;;;0.60;;
17790;SDS011;9019;48.132;-1.210;2024-02-26T11:51:18;2.47;;;0.60;;
17790;SDS011;9019;48.132;-1.210;2024-02-26T11:53:51;2.50;;;0.70;;
17790;SDS011;9019;48.132;-1.210;2024-02-26T11:56:22;2.00;;;0.50;;
17790;SDS011;9019;48.132;-1.210;2024-02-26T11:58:58;1.87;;;0.50;;
17790;SDS011;9019;48.132;-1.210;2024-02-26T12:04:21;2.43;;;0.47;;
17790;SDS011;9019;48.132;-1.210;2024-02-26T12:06:51;2.13;;;0.63;;
17790;SDS011;9019;48.132;-1.210;2024-02-26T12:09:31;2.33;;;0.43;;
17790;SDS011;9019;48.132;-1.210;2024-02-26T12:11:59;1.00;;;0.37;;
17790;SDS011;9019;48.132;-1.210;2024-02-26T12:14:26;4.60;;;0.73;;
17790;SDS011;9019;48.132;-1.210;2024-02-26T12:16:54;1.87;;;0.63;;
17790;SDS011;9019;48.132;-1.210;2024-02-26T12:19:24;2.17;;;0.50;;
17790;SDS011;9019;48.132;-1.210;2024-02-26T12:21:52;2.13;;;0.40;;
17790;SDS011;9019;48.132;-1.210;2024-02-26T12:24:20;2.83;;;0.60;;
17790;SDS011;9019;48.132;-1.210;2024-02-26T12:26:47;2.40;;;0.63;;
17790;SDS011;9019;48.132;-1.210;2024-02-26T12:29:15;3.60;;;0.60;;
17790;SDS011;9019;48.132;-1.210;2024-02-26T12:31:43;2.13;;;0.60;;
17790;SDS011;9019;48.132;-1.210;2024-02-26T12:34:10;1.20;;;0.53;;
17790;SDS011;9019;48.132;-1.210;2024-02-26T12:36:39;2.50;;;0.60;;
17790;SDS011;9019;48.132;-1.210;2024-02-26T12:39:06;2.80;;;0.60;;
17790;SDS011;9019;48.132;-1.210;2024-02-26T12:41:34;1.63;;;0.40;;
17790;SDS011;9019;48.132;-1.210;2024-02-26T12:44:01;2.93;;;0.57;;
17790;SDS011;9019;48.132;-1.210;2024-02-26T12:46:29;1.63;;;0.50;;
17790;SDS011;9019;48.132;-1.210;2024-02-26T12:48:58;2.30;;;0.67;;
17790;SDS011;9019;48.132;-1.210;2024-02-26T12:51:26;2.23;;;0.40;;
17790;SDS011;9019;48.132;-1.210;2024-02-26T12:53:55;2.13;;;0.57;;
17790;SDS011;9019;48.132;-1.210;2024-02-26T12:56:23;2.53;;;0.60;;
17790;SDS011;9019;48.132;-1.210;2024-02-26T12:58:50;2.47;;;0.80;;
17790;SDS011;9019;48.132;-1.210;2024-02-26T13:01:22;2.40;;;0.70;;
17790;SDS011;9019;48.132;-1.210;2024-02-26T13:03:50;2.37;;;0.93;;
17790;SDS011;9019;48.132;-1.210;2024-02-26T13:06:17;2.87;;;0.70;;
17790;SDS011;9019;48.132;-1.210;2024-02-26T13:08:45;4.10;;;0.70;;
17790;SDS011;9019;48.132;-1.210;2024-02-26T13:11:14;1.00;;;0.60;;
17790;SDS011;9019;48.132;-1.210;2024-02-26T13:13:41;2.53;;;0.60;;
17790;SDS011;9019;48.132;-1.210;2024-02-26T13:16:10;4.40;;;0.60;;
17790;SDS011;9019;48.132;-1.210;2024-02-26T13:18:37;1.70;;;0.50;;
17790;SDS011;9019;48.132;-1.210;2024-02-26T13:21:08;2.73;;;0.70;;
17790;SDS011;9019;48.132;-1.210;2024-02-26T13:23:36;2.97;;;0.67;;
17790;SDS011;9019;48.132;-1.210;2024-02-26T13:26:03;2.53;;;0.47;;
17790;SDS011;9019;48.132;-1.210;2024-02-26T13:28:32;3.00;;;0.70;;
17790;SDS011;9019;48.132;-1.210;2024-02-26T13:31:00;1.87;;;0.50;;
17790;SDS011;9019;48.132;-1.210;2024-02-26T13:33:29;1.80;;;0.70;;
17790;SDS011;9019;48.132;-1.210;2024-02-26T13:35:57;10.63;;;1.23;;
17790;SDS011;9019;48.132;-1.210;2024-02-26T13:38:25;5.53;;;1.43;;
17790;SDS011;9019;48.132;-1.210;2024-02-26T13:40:53;3.00;;;0.70;;
17790;SDS011;9019;48.132;-1.210;2024-02-26T13:43:20;2.17;;;0.63;;
17790;SDS011;9019;48.132;-1.210;2024-02-26T13:45:49;3.43;;;2.70;;
17790;SDS011;9019;48.132;-1.210;2024-02-26T13:48:16;2.57;;;0.80;;
17790;SDS011;9019;48.132;-1.210;2024-02-26T13:50:44;3.33;;;1.03;;
17790;SDS011;9019;48.132;-1.210;2024-02-26T13:53:11;3.50;;;1.30;;
17790;SDS011;9019;48.132;-1.210;2024-02-26T13:55:39;2.93;;;1.00;;
17790;SDS011;9019;48.132;-1.210;2024-02-26T13:58:08;2.83;;;0.83;;
17790;SDS011;9019;48.132;-1.210;2024-02-26T14:00:35;5.23;;;1.47;;
17790;SDS011;9019;48.132;-1.210;2024-02-26T14:03:04;3.10;;;1.20;;
17790;SDS011;9019;48.132;-1.210;2024-02-26T14:05:31;4.43;;;1.10;;
17790;SDS011;9019;48.132;-1.210;2024-02-26T14:07:59;3.83;;;1.00;;
17790;SDS011;9019;48.132;-1.210;2024-02-26T14:10:26;2.83;;;1.00;;
17790;SDS011;9019;48.132;-1.210;2024-02-26T14:12:53;4.03;;;1.10;;
17790;SDS011;9019;48.132;-1.210;2024-02-26T14:15:20;4.07;;;1.07;;
17790;SDS011;9019;48.132;-1.210;2024-02-26T14:17:49;6.00;;;1.20;;
17790;SDS011;9019;48.132;-1.210;2024-02-26T14:20:21;2.30;;;0.90;;
17790;SDS011;9019;48.132;-1.210;2024-02-26T14:22:48;2.10;;;0.80;;
17790;SDS011;9019;48.132;-1.210;2024-02-26T14:25:16;3.60;;;1.10;;
17790;SDS011;9019;48.132;-1.210;2024-02-26T14:27:44;3.93;;;1.90;;
17790;SDS011;9019;48.132;-1.210;2024-02-26T14:30:12;2.97;;;2.07;;
17790;SDS011;9019;48.132;-1.210;2024-02-26T14:32:40;3.93;;;2.93;;
17790;SDS011;9019;48.132;-1.210;2024-02-26T14:35:07;3.60;;;2.30;;
17790;SDS011;9019;48.132;-1.210;2024-02-26T14:37:36;2.03;;;1.30;;
17790;SDS011;9019;48.132;-1.210;2024-02-26T14:40:06;1.67;;;0.70;;
17790;SDS011;9019;48.132;-1.210;2024-02-26T14:42:34;1.90;;;0.90;;
17790;SDS011;9019;48.132;-1.210;2024-02-26T14:45:02;5.20;;;3.43;;
17790;SDS011;9019;48.132;-1.210;2024-02-26T14:47:31;4.37;;;3.00;;
17790;SDS011;9019;48.132;-1.210;2024-02-26T14:49:58;1.73;;;1.20;;
17790;SDS011;9019;48.132;-1.210;2024-02-26T14:52:25;2.13;;;1.20;;
17790;SDS011;9019;48.132;-1.210;2024-02-26T14:54:54;4.37;;;1.93;;
17790;SDS011;9019;48.132;-1.210;2024-02-26T14:57:22;4.23;;;1.10;;
17790;SDS011;9019;48.132;-1.210;2024-02-26T14:59:49;3.63;;;1.13;;
17790;SDS011;9019;48.132;-1.210;2024-02-26T15:02:17;2.20;;;1.07;;
17790;SDS011;9019;48.132;-1.210;2024-02-26T15:04:44;2.97;;;1.03;;